Time;durP1;ratioP1;P1;durP2;ratioP2;P2;SDS_P1;SDS_P2;PMS_P1;PMS_P2;Temp;Humidity;BMP_temperature;BMP_pressure;BME280_temperature;BME280_humidity;BME280_pressure;Samples;Min_cycle;Max_cycle;Signal;HPM_P1;HPM_P2
2023/03/26 14:52:59;;;;;;;12.02;3.95;;;8.80;99.90;;;;;;5107788;27;20341;-60
2023/03/26 14:56:00;;;;;;;11.90;3.17;;;8.80;99.90;;;;;;5107858;28;20042;-60
2023/03/26 14:58:54;;;;;;;16.50;3.65;;;8.90;99.90;;;;;;5107261;28;20101;-60
2023/03/26 15:01:38;;;;;;;9.18;2.75;;;9.00;99.90;;;;;;5110357;28;20024;-60
2023/03/26 15:04:26;;;;;;;7.47;2.40;;;9.00;99.90;;;;;;5119012;28;20028;-60
2023/03/26 15:07:12;;;;;;;14.57;3.33;;;9.00;99.90;;;;;;5125931;28;20024;-60
2023/03/26 15:09:59;;;;;;;10.00;2.85;;;9.00;99.90;;;;;;5107556;28;20023;-61
2023/03/26 15:12:32;;;;;;;8.70;2.30;;;9.00;99.90;;;;;;5107143;28;20032;-61
2023/03/26 15:15:35;;;;;;;9.55;2.53;;;9.00;99.90;;;;;;5090996;28;20477;-60
2023/03/26 15:18:36;;;;;;;8.00;2.40;;;9.00;99.90;;;;;;5085192;28;20024;-61
2023/03/26 15:21:19;;;;;;;8.25;2.47;;;8.90;99.90;;;;;;5085188;28;20131;-61
2023/03/26 15:24:12;;;;;;;8.00;2.80;;;8.90;99.90;;;;;;5087065;28;20071;-61
2023/03/26 15:27:15;;;;;;;8.80;2.35;;;8.90;99.90;;;;;;5086487;28;20025;-60
2023/03/26 15:29:59;;;;;;;13.65;3.45;;;8.90;99.90;;;;;;5110914;28;20027;-61
2023/03/26 15:32:40;;;;;;;8.77;2.47;;;8.90;99.90;;;;;;5114465;28;20714;-63
2023/03/26 15:35:27;;;;;;;6.75;2.85;;;8.90;99.90;;;;;;5104275;28;20126;-61
2023/03/26 15:38:04;;;;;;;10.68;3.00;;;8.90;99.90;;;;;;5103641;28;20425;-61
2023/03/26 15:40:32;;;;;;;12.18;2.85;;;8.90;99.90;;;;;;5085810;28;20350;-61
2023/03/26 15:43:19;;;;;;;7.47;2.55;;;8.80;99.90;;;;;;5097896;28;20067;-61
2023/03/26 15:48:26;;;;;;;8.32;3.17;;;8.80;99.90;;;;;;5240427;22;20120;-61
2023/03/26 15:51:00;;;;;;;6.13;2.13;;;8.80;99.90;;;;;;4987223;28;20058;-60
2023/03/26 15:54:03;;;;;;;9.82;2.50;;;8.70;99.90;;;;;;4986162;28;20030;-62
2023/03/26 15:56:47;;;;;;;8.43;2.50;;;8.70;99.90;;;;;;4986034;28;20031;-60
2023/03/26 15:59:48;;;;;;;9.52;2.50;;;8.70;99.90;;;;;;4986266;28;20027;-62
2023/03/26 16:02:40;;;;;;;11.88;2.35;;;8.70;99.90;;;;;;4981773;28;20089;-62
2023/03/26 16:05:40;;;;;;;9.23;2.22;;;8.60;99.90;;;;;;4973660;28;20018;-63
2023/03/26 16:08:27;;;;;;;12.90;3.63;;;8.60;99.90;;;;;;4973738;28;20054;-63
2023/03/26 16:11:02;;;;;;;5.90;1.83;;;8.50;99.90;;;;;;4957352;28;20049;-62
2023/03/26 16:13:31;;;;;;;8.50;2.42;;;8.50;99.90;;;;;;4973822;28;20146;-61
2023/03/26 16:16:02;;;;;;;7.55;2.20;;;8.50;99.90;;;;;;4973887;28;20171;-61
2023/03/26 16:18:45;;;;;;;12.95;2.47;;;8.50;99.90;;;;;;4972631;28;20089;-61
2023/03/26 16:21:30;;;;;;;10.70;3.13;;;8.40;99.90;;;;;;4973274;28;20034;-60
2023/03/26 16:24:10;;;;;;;8.52;2.33;;;8.40;99.90;;;;;;4953674;29;20138;-61
2023/03/26 16:26:42;;;;;;;6.43;1.92;;;8.40;99.90;;;;;;4955164;28;20440;-61
2023/03/26 16:29:13;;;;;;;;;;;8.30;99.90;;;;;;4956408;28;20137;-64
2023/03/26 16:32:15;;;;;;;10.27;2.17;;;8.30;99.90;;;;;;4973373;28;19944;-61
2023/03/26 16:34:51;;;;;;;12.77;2.50;;;8.30;99.90;;;;;;4973626;28;20266;-61
2023/03/26 16:37:38;;;;;;;12.23;4.07;;;8.20;99.90;;;;;;4972966;28;20099;-60
2023/03/26 16:40:19;;;;;;;8.05;2.72;;;8.20;99.90;;;;;;4973497;28;20097;-60
2023/03/26 16:43:23;;;;;;;7.68;2.78;;;8.20;99.90;;;;;;4972783;28;20085;-61
2023/03/26 16:46:27;;;;;;;9.38;2.65;;;8.20;99.90;;;;;;4973239;28;20038;-61
2023/03/26 16:49:01;;;;;;;11.40;3.30;;;8.10;99.90;;;;;;4972924;28;20089;-61
2023/03/26 16:52:05;;;;;;;8.13;2.38;;;8.10;99.90;;;;;;4955458;28;20049;-61
2023/03/26 16:55:05;;;;;;;9.40;2.10;;;8.10;99.90;;;;;;4955067;28;20034;-61
2023/03/26 16:58:03;;;;;;;8.52;2.05;;;8.00;99.90;;;;;;4972550;28;20026;-60
2023/03/26 17:00:48;;;;;;;9.45;2.13;;;8.00;99.90;;;;;;4972921;28;20038;-61
2023/03/26 17:03:37;;;;;;;13.95;1.95;;;8.00;99.90;;;;;;4973048;28;20062;-63
2023/03/26 17:06:30;;;;;;;11.48;3.13;;;8.00;99.90;;;;;;4972219;28;20019;-60
2023/03/26 17:09:05;;;;;;;13.88;2.22;;;8.00;99.90;;;;;;4972811;28;20483;-60
2023/03/26 17:11:50;;;;;;;9.07;2.00;;;7.90;99.90;;;;;;4971616;28;20035;-60
2023/03/26 17:14:27;;;;;;;6.47;1.80;;;7.90;99.90;;;;;;4971621;28;20023;-61
2023/03/26 17:17:04;;;;;;;7.80;1.98;;;7.80;99.90;;;;;;4954963;28;20732;-61
2023/03/26 17:19:38;;;;;;;10.13;2.13;;;7.80;99.90;;;;;;4959183;28;20418;-62
2023/03/26 17:22:13;;;;;;;6.00;1.92;;;7.70;99.90;;;;;;4969213;28;20043;-61
2023/03/26 17:24:48;;;;;;;12.15;2.92;;;7.70;99.90;;;;;;4950695;28;20034;-60
2023/03/26 17:27:58;;;;;;;11.70;2.45;;;7.70;99.90;;;;;;4961414;28;20043;-61
2023/03/26 17:30:47;;;;;;;5.30;1.40;;;7.60;99.90;;;;;;4971646;28;20030;-60
2023/03/26 17:33:42;;;;;;;5.10;1.83;;;7.50;99.90;;;;;;4971332;28;20109;-60
2023/03/26 17:36:11;;;;;;;7.13;1.95;;;7.40;99.90;;;;;;4972514;28;20034;-61
2023/03/26 17:38:39;;;;;;;5.22;1.67;;;7.40;99.90;;;;;;4991577;28;20084;-61
2023/03/26 17:41:07;;;;;;;5.65;1.58;;;7.30;99.90;;;;;;4978260;28;20030;-60
2023/03/26 17:43:48;;;;;;;14.10;2.10;;;7.30;99.60;;;;;;4988130;28;20033;-60
2023/03/26 17:46:40;;;;;;;8.27;1.50;;;7.30;99.90;;;;;;4986303;28;20058;-60
2023/03/26 17:49:14;;;;;;;;;;;7.30;99.90;;;;;;4972185;28;20085;-60
2023/03/26 17:51:55;;;;;;;6.70;1.42;;;7.20;99.00;;;;;;4954381;28;20020;-61
2023/03/26 17:54:40;;;;;;;7.10;1.80;;;7.10;98.00;;;;;;4955215;28;20050;-61
2023/03/26 17:57:15;;;;;;;4.03;1.33;;;7.10;99.30;;;;;;4951616;29;20046;-61
2023/03/26 17:59:43;;;;;;;6.45;1.33;;;7.00;99.70;;;;;;4969547;28;20023;-60
2023/03/26 18:02:20;;;;;;;10.63;2.22;;;7.00;99.80;;;;;;4990948;28;20030;-60
2023/03/26 18:04:50;;;;;;;5.63;1.98;;;6.90;99.90;;;;;;4964969;28;20029;-60
2023/03/26 18:07:43;;;;;;;9.05;1.90;;;6.90;99.10;;;;;;4971626;28;20031;-61
2023/03/26 18:10:31;;;;;;;8.90;2.20;;;6.90;99.20;;;;;;4953861;28;20479;-60
2023/03/26 18:13:10;;;;;;;14.50;4.13;;;6.80;98.80;;;;;;4971380;28;20035;-60
2023/03/26 18:15:50;;;;;;;7.05;2.80;;;6.80;99.90;;;;;;4971555;28;20026;-61
2023/03/26 18:18:47;;;;;;;16.77;4.30;;;6.80;99.90;;;;;;4970828;28;20474;-61
2023/03/26 18:21:26;;;;;;;14.63;4.45;;;6.70;99.90;;;;;;4970480;28;20049;-61
2023/03/26 18:23:52;;;;;;;20.15;5.40;;;6.70;99.90;;;;;;4971400;28;20034;-61
2023/03/26 18:26:31;;;;;;;30.83;8.55;;;6.70;99.90;;;;;;4970933;28;20026;-61
2023/03/26 18:29:35;;;;;;;18.23;5.60;;;6.70;99.90;;;;;;4970444;28;20081;-61
2023/03/26 18:32:12;;;;;;;22.10;6.28;;;6.70;99.90;;;;;;4911607;29;20050;-61
2023/03/26 18:34:48;;;;;;;16.30;3.78;;;6.70;99.90;;;;;;4965324;28;20047;-60
2023/03/26 18:37:27;;;;;;;10.68;3.45;;;6.70;99.90;;;;;;4971161;28;20027;-61
2023/03/26 18:40:14;;;;;;;14.38;3.55;;;6.70;99.90;;;;;;4971346;28;20391;-62
2023/03/26 18:42:43;;;;;;;13.00;2.83;;;6.70;99.90;;;;;;4969713;28;20027;-61
2023/03/26 18:45:31;;;;;;;11.25;2.15;;;6.60;99.90;;;;;;4970664;28;20022;-60
2023/03/26 18:48:16;;;;;;;4.85;1.95;;;6.60;99.90;;;;;;4970837;28;20038;-61
2023/03/26 18:50:42;;;;;;;6.85;1.88;;;6.60;99.90;;;;;;4971269;28;20150;-60
2023/03/26 18:53:16;;;;;;;4.38;1.65;;;6.60;99.90;;;;;;4970661;28;20027;-60
2023/03/26 18:55:43;;;;;;;7.55;2.05;;;6.50;99.90;;;;;;4970865;28;20026;-61
2023/03/26 18:58:33;;;;;;;10.55;2.55;;;6.50;99.90;;;;;;4984229;28;20029;-60
2023/03/26 19:01:04;;;;;;;7.57;2.45;;;6.50;99.90;;;;;;4986888;28;20422;-60
2023/03/26 19:03:35;;;;;;;5.10;2.30;;;6.50;99.90;;;;;;4971003;28;20417;-60
2023/03/26 19:06:03;;;;;;;10.30;2.90;;;6.50;99.90;;;;;;4970241;28;20031;-60
2023/03/26 19:08:31;;;;;;;10.20;3.67;;;6.50;99.90;;;;;;4970830;28;20027;-60
2023/03/26 19:11:01;;;;;;;12.45;3.28;;;6.50;99.90;;;;;;4971138;28;20031;-61
2023/03/26 19:13:27;;;;;;;7.50;3.30;;;6.50;99.50;;;;;;4970851;28;20026;-61
2023/03/26 19:15:55;;;;;;;5.72;2.00;;;6.50;99.00;;;;;;4953602;28;20503;-61
2023/03/26 19:18:25;;;;;;;8.85;2.75;;;6.40;99.00;;;;;;4969927;28;20065;-60
2023/03/26 19:20:54;;;;;;;9.70;2.42;;;6.40;98.80;;;;;;4953692;28;20019;-61
2023/03/26 19:23:31;;;;;;;5.63;2.05;;;6.40;98.40;;;;;;4969938;28;20098;-60
2023/03/26 19:26:00;;;;;;;7.53;1.88;;;6.40;98.00;;;;;;4970723;28;20051;-60
2023/03/26 19:28:37;;;;;;;6.32;1.70;;;6.30;98.00;;;;;;4952650;28;20022;-61
2023/03/26 19:31:15;;;;;;;4.57;1.77;;;6.30;98.20;;;;;;4970629;28;20026;-60
